Seaman, Ohio
Current Conditions -  °F | °C
As of 5:55 PM on Thursday 23 Oct 2014 (Local Time) from KFGX Reporting Station
Clear Clear  
Wind Chill: 58°   Ceiling: Unl
Heat Index: 58°   Visibility: 10mi
Dew Point: 42°   Wind: 0mph
Humidity: 54%   Direction: NA
Pressure: 30.15"   Gusts: NA
Location:  38.94°N, 83.57°W
Report Text: KFGX 232155Z AUTO 00000KT 10SM CLR 14/05 A3015 RMK AO2 T01440053
Loading
Personal Weather Stations






























Interactive Weather Map
Tropical Storm Tracking
New forecast layout! Learn more

10-Day Weather Forecast

Advertisements
Track Severe Weather on mobile